Sanibel, FL

5:24 AM EDT on October 01, 2014 (GMT -0400)
Page | Change Station
CLOSE
Current Station
Airport
Location: Fort Myers,
Elevation: 5 m
Nearby Weather Stations

Elev 5 m 26.58 °N, 81.86 °W | Updated 1 hour ago

Clear
Clear
25 °C
Feels Like 25 °C
N
0
Wind Variable Wind from North

Today
High -- | Low -- °C
--% Chance of Precip.
Yesterday
High -- | Low -- °C
Precip. -- mm
7:20 AM 7:14 PM
Waxing Crescent, 45% visible
Pressure 1011 hPa
Visibility 16.1 kilometers
Clouds Clear
Dew Point 24 °C
Humidity 96%
Rainfall 0.0 mm
Snow Depth Not available.
UV 0 out of 12
Pollen 5.00 out of 12
Air Quality Not available.
Flu Activity Not available.
METAR KFMY 010753Z AUTO 00000KT 10SM CLR 25/24 A2984 RMK AO2 SLP108 T02500244

More Conditions Fewer Conditions

Pressure 1011 hPa
Visibility 16.1 kilometers
Clouds Clear
Dew Point 24 °C
Humidity 96%
Rainfall 0.0 mm
Snow Depth Not available.
UV 0 out of 12
Pollen 5.00 out of 12
Air Quality Not available.
Flu Activity Not available.
METAR KFMY 010753Z AUTO 00000KT 10SM CLR 25/24 A2984 RMK AO2 SLP108 T02500244

More Conditions Fewer Conditions

10-Day Weather Forecast

Almanac

Astronomy

Oct. 01, 2014 Rise Set
Actual Time 7:20 AM EDT 7:14 PM EDT
Civil Twilight 6:57 AM EDT 7:37 PM EDT
Nautical Twilight 6:30 AM EDT 8:04 PM EDT
Astronomical Twilight 6:03 AM EDT 8:31 PM EDT
Moon 1:57 PM EDT 12:09 AM EDT
Length of Visible Light 12h 40m
Length of Day
11h 53m
Tomorrow will be 1m 32s shorter.
Waxing Crescent, 45% of the Moon is Illuminated
Today
Waxing Crescent
Oct 1
First Quarter
Oct 8
Full
Oct 15
Last Quarter
Oct 23
New

Today's Extremes

State Highs State Lows

Community

WunderPhotos

Upload Photos

1,757,902 photos uploaded!

WunderBlogs® & News

Nearby

Snow Depth

Station Depth Elevation
No new snow has been reported.

Earthquake Activity

City Distance Mag. Time & Date
No recent earthquake activity has been reported nearby.
Minimum magnitude displayed is 2.5.

Coastal Water Temperatures

Place Temperature
No Stations Reporting

Nearby Weather Stations